sensor_id;sensor_type;location;lat;lon;timestamp;pressure;altitude;pressure_sealevel;temperature;humidity
23176;BME280;19910;42.652;23.332;2023-05-09T00:00:06;94906.88;;;12.70;90.98
23176;BME280;19910;42.652;23.332;2023-05-09T00:02:36;94906.56;;;12.84;90.64
23176;BME280;19910;42.652;23.332;2023-05-09T00:05:04;94898.06;;;12.86;90.24
23176;BME280;19910;42.652;23.332;2023-05-09T00:07:32;94899.78;;;12.90;90.02
23176;BME280;19910;42.652;23.332;2023-05-09T00:09:59;94901.56;;;12.86;89.75
23176;BME280;19910;42.652;23.332;2023-05-09T00:12:26;94895.84;;;13.00;89.32
23176;BME280;19910;42.652;23.332;2023-05-09T00:14:53;94890.66;;;13.07;88.45
23176;BME280;19910;42.652;23.332;2023-05-09T00:17:21;94900.16;;;13.01;88.76
23176;BME280;19910;42.652;23.332;2023-05-09T00:19:52;94891.13;;;13.09;88.50
23176;BME280;19910;42.652;23.332;2023-05-09T00:22:20;94888.31;;;13.18;87.88
23176;BME280;19910;42.652;23.332;2023-05-09T00:24:46;94896.59;;;12.88;88.05
23176;BME280;19910;42.652;23.332;2023-05-09T00:27:13;94889.47;;;12.84;88.27
23176;BME280;19910;42.652;23.332;2023-05-09T00:29:40;94891.28;;;12.92;88.47
23176;BME280;19910;42.652;23.332;2023-05-09T00:32:07;94893.53;;;12.90;87.64
23176;BME280;19910;42.652;23.332;2023-05-09T00:34:34;94897.34;;;12.76;88.86
23176;BME280;19910;42.652;23.332;2023-05-09T00:37:02;94895.28;;;12.73;88.27
23176;BME280;19910;42.652;23.332;2023-05-09T00:39:29;94889.25;;;13.01;87.06
23176;BME280;19910;42.652;23.332;2023-05-09T00:41:56;94882.94;;;12.97;87.69
23176;BME280;19910;42.652;23.332;2023-05-09T00:44:22;94886.66;;;12.92;88.44
23176;BME280;19910;42.652;23.332;2023-05-09T00:46:49;94879.78;;;12.74;88.14
23176;BME280;19910;42.652;23.332;2023-05-09T00:49:16;94890.91;;;12.81;88.10
23176;BME280;19910;42.652;23.332;2023-05-09T00:51:43;94892.50;;;12.82;87.68
23176;BME280;19910;42.652;23.332;2023-05-09T00:54:11;94890.84;;;13.02;87.23
23176;BME280;19910;42.652;23.332;2023-05-09T00:56:38;94889.53;;;13.08;86.89
23176;BME280;19910;42.652;23.332;2023-05-09T00:59:05;94887.06;;;13.15;86.94
23176;BME280;19910;42.652;23.332;2023-05-09T01:01:31;94880.91;;;13.06;86.78
23176;BME280;19910;42.652;23.332;2023-05-09T01:03:58;94888.38;;;12.97;86.51
23176;BME280;19910;42.652;23.332;2023-05-09T01:06:31;94884.53;;;12.98;87.73
23176;BME280;19910;42.652;23.332;2023-05-09T01:09:07;94884.53;;;12.98;87.50
23176;BME280;19910;42.652;23.332;2023-05-09T01:11:41;94890.91;;;12.81;87.88
23176;BME280;19910;42.652;23.332;2023-05-09T01:14:14;94888.28;;;12.72;88.05
23176;BME280;19910;42.652;23.332;2023-05-09T01:16:49;94887.09;;;12.61;88.22
23176;BME280;19910;42.652;23.332;2023-05-09T01:19:34;94888.63;;;12.71;88.53
23176;BME280;19910;42.652;23.332;2023-05-09T01:22:06;94887.56;;;12.63;87.58
23176;BME280;19910;42.652;23.332;2023-05-09T01:24:53;94881.88;;;12.56;88.04
23176;BME280;19910;42.652;23.332;2023-05-09T01:27:38;94885.13;;;12.50;88.58
23176;BME280;19910;42.652;23.332;2023-05-09T01:30:10;94887.53;;;12.51;88.14
23176;BME280;19910;42.652;23.332;2023-05-09T01:32:38;94884.47;;;12.53;88.02
23176;BME280;19910;42.652;23.332;2023-05-09T01:35:09;94878.25;;;12.52;88.33
23176;BME280;19910;42.652;23.332;2023-05-09T01:37:41;94891.63;;;12.57;87.68
23176;BME280;19910;42.652;23.332;2023-05-09T01:40:14;94881.75;;;12.53;87.78
23176;BME280;19910;42.652;23.332;2023-05-09T01:42:43;94876.50;;;12.48;88.56
23176;BME280;19910;42.652;23.332;2023-05-09T01:45:12;94874.41;;;12.53;88.21
23176;BME280;19910;42.652;23.332;2023-05-09T01:47:40;94889.34;;;12.59;88.25
23176;BME280;19910;42.652;23.332;2023-05-09T01:50:10;94877.81;;;12.62;88.19
23176;BME280;19910;42.652;23.332;2023-05-09T01:52:39;94887.75;;;12.58;88.29
23176;BME280;19910;42.652;23.332;2023-05-09T01:55:07;94892.75;;;12.56;88.24
23176;BME280;19910;42.652;23.332;2023-05-09T01:57:36;94889.56;;;12.54;88.47
23176;BME280;19910;42.652;23.332;2023-05-09T02:00:05;94892.28;;;12.54;87.90
23176;BME280;19910;42.652;23.332;2023-05-09T02:02:36;94886.19;;;12.57;87.92
23176;BME280;19910;42.652;23.332;2023-05-09T02:05:04;94894.78;;;12.59;88.06
23176;BME280;19910;42.652;23.332;2023-05-09T02:07:32;94888.44;;;12.55;88.57
23176;BME280;19910;42.652;23.332;2023-05-09T02:09:59;94892.16;;;12.51;88.42
23176;BME280;19910;42.652;23.332;2023-05-09T02:12:27;94898.25;;;12.48;88.39
23176;BME280;19910;42.652;23.332;2023-05-09T02:14:54;94892.03;;;12.47;88.34
23176;BME280;19910;42.652;23.332;2023-05-09T02:17:21;94892.03;;;12.47;88.43
23176;BME280;19910;42.652;23.332;2023-05-09T02:19:49;94876.50;;;12.48;88.45
23176;BME280;19910;42.652;23.332;2023-05-09T02:22:16;94881.81;;;12.65;87.74
23176;BME280;19910;42.652;23.332;2023-05-09T02:24:43;94880.34;;;12.67;87.77
23176;BME280;19910;42.652;23.332;2023-05-09T02:27:10;94881.72;;;12.73;87.63
23176;BME280;19910;42.652;23.332;2023-05-09T02:29:40;94880.47;;;12.71;87.49
23176;BME280;19910;42.652;23.332;2023-05-09T02:32:11;94879.53;;;12.67;88.08
23176;BME280;19910;42.652;23.332;2023-05-09T02:34:39;94885.66;;;12.64;87.88
23176;BME280;19910;42.652;23.332;2023-05-09T02:37:09;94879.16;;;12.56;88.59
23176;BME280;19910;42.652;23.332;2023-05-09T02:39:36;94879.41;;;12.63;88.71
23176;BME280;19910;42.652;23.332;2023-05-09T02:42:05;94885.50;;;12.60;88.77
23176;BME280;19910;42.652;23.332;2023-05-09T02:44:32;94880.75;;;12.57;88.91
23176;BME280;19910;42.652;23.332;2023-05-09T02:46:59;94879.28;;;12.60;88.62
23176;BME280;19910;42.652;23.332;2023-05-09T02:49:26;94879.69;;;12.50;89.29
23176;BME280;19910;42.652;23.332;2023-05-09T02:51:53;94876.84;;;12.46;89.59
23176;BME280;19910;42.652;23.332;2023-05-09T02:54:21;94884.59;;;12.56;88.86
23176;BME280;19910;42.652;23.332;2023-05-09T02:56:48;94885.94;;;12.50;88.89
23176;BME280;19910;42.652;23.332;2023-05-09T02:59:16;94888.50;;;12.46;88.72
23176;BME280;19910;42.652;23.332;2023-05-09T03:01:43;94888.31;;;12.31;89.29
23176;BME280;19910;42.652;23.332;2023-05-09T03:04:10;94885.53;;;12.39;88.98
23176;BME280;19910;42.652;23.332;2023-05-09T03:06:37;94888.03;;;12.44;88.83
23176;BME280;19910;42.652;23.332;2023-05-09T03:09:04;94894.28;;;12.45;88.96
23176;BME280;19910;42.652;23.332;2023-05-09T03:11:33;94894.75;;;12.47;89.03
23176;BME280;19910;42.652;23.332;2023-05-09T03:14:01;94896.78;;;12.50;88.80
23176;BME280;19910;42.652;23.332;2023-05-09T03:16:27;94897.44;;;12.47;88.82
23176;BME280;19910;42.652;23.332;2023-05-09T03:18:54;94905.03;;;12.41;89.28
23176;BME280;19910;42.652;23.332;2023-05-09T03:21:21;94914.41;;;12.44;89.44
23176;BME280;19910;42.652;23.332;2023-05-09T03:23:48;94919.84;;;12.44;89.32
23176;BME280;19910;42.652;23.332;2023-05-09T03:26:14;94918.66;;;12.33;89.73
23176;BME280;19910;42.652;23.332;2023-05-09T03:28:42;94926.81;;;12.33;90.12
23176;BME280;19910;42.652;23.332;2023-05-09T03:31:09;94928.63;;;12.29;90.80
23176;BME280;19910;42.652;23.332;2023-05-09T03:33:36;94928.47;;;12.25;90.96
23176;BME280;19910;42.652;23.332;2023-05-09T03:36:03;94933.13;;;12.25;91.60
23176;BME280;19910;42.652;23.332;2023-05-09T03:38:30;94936.16;;;12.23;91.65
23176;BME280;19910;42.652;23.332;2023-05-09T03:40:57;94933.75;;;12.22;91.68
23176;BME280;19910;42.652;23.332;2023-05-09T03:43:24;94941.25;;;12.25;91.93
23176;BME280;19910;42.652;23.332;2023-05-09T03:45:52;94937.13;;;12.19;92.32
23176;BME280;19910;42.652;23.332;2023-05-09T03:48:18;94941.38;;;12.07;93.10
23176;BME280;19910;42.652;23.332;2023-05-09T03:50:45;94947.44;;;12.04;93.57
23176;BME280;19910;42.652;23.332;2023-05-09T03:53:12;94949.50;;;12.07;94.00
23176;BME280;19910;42.652;23.332;2023-05-09T03:55:39;94941.19;;;12.13;93.51
23176;BME280;19910;42.652;23.332;2023-05-09T03:58:05;94944.38;;;12.15;93.30
23176;BME280;19910;42.652;23.332;2023-05-09T04:00:32;94936.22;;;12.15;92.87
23176;BME280;19910;42.652;23.332;2023-05-09T04:03:00;94946.28;;;12.35;92.42
23176;BME280;19910;42.652;23.332;2023-05-09T04:05:27;94946.03;;;12.49;91.19
23176;BME280;19910;42.652;23.332;2023-05-09T04:07:54;94941.72;;;12.68;90.90
23176;BME280;19910;42.652;23.332;2023-05-09T04:10:21;94947.81;;;12.65;90.27
23176;BME280;19910;42.652;23.332;2023-05-09T04:12:49;94943.56;;;12.76;90.01
23176;BME280;19910;42.652;23.332;2023-05-09T04:15:16;94937.03;;;12.90;89.06
23176;BME280;19910;42.652;23.332;2023-05-09T04:17:43;94939.72;;;12.77;89.44
23176;BME280;19910;42.652;23.332;2023-05-09T04:20:12;94931.84;;;12.85;89.18
23176;BME280;19910;42.652;23.332;2023-05-09T04:22:39;94941.69;;;12.89;88.82
23176;BME280;19910;42.652;23.332;2023-05-09T04:25:06;94943.78;;;13.04;87.91
23176;BME280;19910;42.652;23.332;2023-05-09T04:27:37;94951.69;;;13.18;87.12
23176;BME280;19910;42.652;23.332;2023-05-09T04:30:07;94946.28;;;13.42;86.37
23176;BME280;19910;42.652;23.332;2023-05-09T04:32:34;94942.41;;;13.19;86.62
23176;BME280;19910;42.652;23.332;2023-05-09T04:35:01;94938.16;;;13.67;85.36
23176;BME280;19910;42.652;23.332;2023-05-09T04:37:30;94932.88;;;15.58;78.12
23176;BME280;19910;42.652;23.332;2023-05-09T04:39:57;94938.16;;;16.14;73.88
23176;BME280;19910;42.652;23.332;2023-05-09T04:42:23;94937.63;;;15.18;75.96
23176;BME280;19910;42.652;23.332;2023-05-09T04:44:50;94932.69;;;15.51;76.40
23176;BME280;19910;42.652;23.332;2023-05-09T04:47:17;94937.97;;;15.44;74.42
23176;BME280;19910;42.652;23.332;2023-05-09T04:49:44;94940.19;;;15.11;76.08
23176;BME280;19910;42.652;23.332;2023-05-09T04:52:11;94947.09;;;15.36;75.97
23176;BME280;19910;42.652;23.332;2023-05-09T04:54:39;94936.41;;;15.75;74.27
23176;BME280;19910;42.652;23.332;2023-05-09T04:57:06;94938.28;;;15.27;75.07
23176;BME280;19910;42.652;23.332;2023-05-09T04:59:33;94942.16;;;15.26;74.74
23176;BME280;19910;42.652;23.332;2023-05-09T05:02:00;94943.59;;;15.51;73.83
23176;BME280;19910;42.652;23.332;2023-05-09T05:04:27;94934.91;;;15.18;75.14
23176;BME280;19910;42.652;23.332;2023-05-09T05:06:54;94926.22;;;16.92;69.66
23176;BME280;19910;42.652;23.332;2023-05-09T05:09:21;94927.00;;;17.12;68.39
23176;BME280;19910;42.652;23.332;2023-05-09T05:11:49;94918.34;;;17.10;67.92
23176;BME280;19910;42.652;23.332;2023-05-09T05:14:15;94930.81;;;16.34;68.91
23176;BME280;19910;42.652;23.332;2023-05-09T05:16:42;94930.69;;;15.64;71.23
23176;BME280;19910;42.652;23.332;2023-05-09T05:19:09;94929.13;;;14.91;73.70
23176;BME280;19910;42.652;23.332;2023-05-09T05:21:36;94935.97;;;15.13;74.71
23176;BME280;19910;42.652;23.332;2023-05-09T05:24:03;94929.44;;;15.18;72.63
23176;BME280;19910;42.652;23.332;2023-05-09T05:26:30;94948.53;;;14.74;73.57
23176;BME280;19910;42.652;23.332;2023-05-09T05:28:58;94943.34;;;14.57;74.53
23176;BME280;19910;42.652;23.332;2023-05-09T05:31:25;94938.00;;;14.36;75.54
23176;BME280;19910;42.652;23.332;2023-05-09T05:33:52;94952.25;;;14.17;76.44
23176;BME280;19910;42.652;23.332;2023-05-09T05:36:18;94955.44;;;14.07;78.28
23176;BME280;19910;42.652;23.332;2023-05-09T05:38:45;94957.59;;;14.02;77.81
23176;BME280;19910;42.652;23.332;2023-05-09T05:41:12;94947.16;;;14.04;77.66
23176;BME280;19910;42.652;23.332;2023-05-09T05:43:40;94951.00;;;13.91;78.86
23176;BME280;19910;42.652;23.332;2023-05-09T05:46:08;94952.25;;;13.93;79.60
23176;BME280;19910;42.652;23.332;2023-05-09T05:48:34;94949.75;;;13.88;78.67
23176;BME280;19910;42.652;23.332;2023-05-09T05:51:01;94954.06;;;14.01;78.80
23176;BME280;19910;42.652;23.332;2023-05-09T05:53:28;94945.31;;;14.08;79.03
23176;BME280;19910;42.652;23.332;2023-05-09T05:55:56;94954.94;;;13.81;79.31
23176;BME280;19910;42.652;23.332;2023-05-09T05:58:23;94962.44;;;13.96;79.98
23176;BME280;19910;42.652;23.332;2023-05-09T06:00:50;94956.22;;;13.96;80.63
23176;BME280;19910;42.652;23.332;2023-05-09T06:03:19;94955.41;;;13.95;79.97
23176;BME280;19910;42.652;23.332;2023-05-09T06:05:46;94947.69;;;13.97;80.41
23176;BME280;19910;42.652;23.332;2023-05-09T06:08:13;94948.16;;;14.11;79.75
23176;BME280;19910;42.652;23.332;2023-05-09T06:10:40;94950.66;;;14.16;79.08
23176;BME280;19910;42.652;23.332;2023-05-09T06:13:07;94950.66;;;14.16;79.65
23176;BME280;19910;42.652;23.332;2023-05-09T06:15:33;94950.19;;;14.14;79.25
23176;BME280;19910;42.652;23.332;2023-05-09T06:18:00;94951.31;;;14.13;78.52
23176;BME280;19910;42.652;23.332;2023-05-09T06:20:28;94951.53;;;14.33;77.94
23176;BME280;19910;42.652;23.332;2023-05-09T06:22:55;94948.31;;;14.67;76.58
23176;BME280;19910;42.652;23.332;2023-05-09T06:25:22;94950.66;;;14.41;76.96
23176;BME280;19910;42.652;23.332;2023-05-09T06:27:49;94953.94;;;14.34;76.77
23176;BME280;19910;42.652;23.332;2023-05-09T06:30:15;94953.81;;;14.31;77.36
23176;BME280;19910;42.652;23.332;2023-05-09T06:32:42;94957.00;;;13.96;78.03
23176;BME280;19910;42.652;23.332;2023-05-09T06:35:09;94956.09;;;14.04;77.66
23176;BME280;19910;42.652;23.332;2023-05-09T06:37:37;94958.25;;;14.23;77.09
23176;BME280;19910;42.652;23.332;2023-05-09T06:40:05;94952.78;;;14.23;77.78
23176;BME280;19910;42.652;23.332;2023-05-09T06:42:32;94954.28;;;14.33;76.11
23176;BME280;19910;42.652;23.332;2023-05-09T06:44:59;94952.91;;;14.27;76.64
23176;BME280;19910;42.652;23.332;2023-05-09T06:47:26;94947.50;;;14.67;75.72
23176;BME280;19910;42.652;23.332;2023-05-09T06:49:52;94949.41;;;14.78;74.66
23176;BME280;19910;42.652;23.332;2023-05-09T06:52:19;94948.59;;;14.78;73.32
23176;BME280;19910;42.652;23.332;2023-05-09T06:54:48;94946.53;;;15.15;72.57
23176;BME280;19910;42.652;23.332;2023-05-09T06:57:14;94955.06;;;14.85;72.56
23176;BME280;19910;42.652;23.332;2023-05-09T06:59:41;94948.06;;;14.72;73.73
23176;BME280;19910;42.652;23.332;2023-05-09T07:02:09;94957.00;;;14.45;74.45
23176;BME280;19910;42.652;23.332;2023-05-09T07:04:36;94960.19;;;14.47;74.61
23176;BME280;19910;42.652;23.332;2023-05-09T07:07:02;94944.41;;;14.40;75.04
23176;BME280;19910;42.652;23.332;2023-05-09T07:09:29;94950.28;;;14.54;74.65
23176;BME280;19910;42.652;23.332;2023-05-09T07:11:58;94942.56;;;14.44;75.28
23176;BME280;19910;42.652;23.332;2023-05-09T07:14:26;94945.13;;;14.65;74.41
23176;BME280;19910;42.652;23.332;2023-05-09T07:16:52;94944.97;;;14.46;74.46
23176;BME280;19910;42.652;23.332;2023-05-09T07:19:19;94950.66;;;14.41;74.35
23176;BME280;19910;42.652;23.332;2023-05-09T07:21:46;94945.63;;;14.31;73.64
23176;BME280;19910;42.652;23.332;2023-05-09T07:24:12;94946.78;;;14.42;73.81
23176;BME280;19910;42.652;23.332;2023-05-09T07:26:39;94944.13;;;14.57;72.97
23176;BME280;19910;42.652;23.332;2023-05-09T07:29:13;94940.31;;;14.86;72.69
23176;BME280;19910;42.652;23.332;2023-05-09T07:31:41;94938.72;;;15.13;71.16
23176;BME280;19910;42.652;23.332;2023-05-09T07:34:07;94947.03;;;15.05;70.67
23176;BME280;19910;42.652;23.332;2023-05-09T07:36:34;94942.84;;;14.67;71.36
23176;BME280;19910;42.652;23.332;2023-05-09T07:39:01;94943.34;;;14.57;71.44
23176;BME280;19910;42.652;23.332;2023-05-09T07:41:29;94953.66;;;14.64;71.48
23176;BME280;19910;42.652;23.332;2023-05-09T07:44:00;94947.25;;;15.12;69.64
23176;BME280;19910;42.652;23.332;2023-05-09T07:46:28;94947.81;;;15.05;70.14
23176;BME280;19910;42.652;23.332;2023-05-09T07:48:55;94948.31;;;15.23;69.82
23176;BME280;19910;42.652;23.332;2023-05-09T07:51:21;94943.94;;;15.06;70.27
23176;BME280;19910;42.652;23.332;2023-05-09T07:53:48;94948.63;;;15.06;70.23
23176;BME280;19910;42.652;23.332;2023-05-09T07:56:15;94947.50;;;14.67;70.69
23176;BME280;19910;42.652;23.332;2023-05-09T07:58:42;94949.38;;;14.50;71.16
23176;BME280;19910;42.652;23.332;2023-05-09T08:01:09;94946.53;;;14.59;70.36
23176;BME280;19910;42.652;23.332;2023-05-09T08:03:37;94947.09;;;14.52;71.01
23176;BME280;19910;42.652;23.332;2023-05-09T08:06:04;94941.53;;;14.37;72.98
23176;BME280;19910;42.652;23.332;2023-05-09T08:08:31;94935.88;;;14.42;73.84
23176;BME280;19910;42.652;23.332;2023-05-09T08:10:58;94934.25;;;14.53;73.19
23176;BME280;19910;42.652;23.332;2023-05-09T08:13:25;94940.41;;;14.26;73.63
23176;BME280;19910;42.652;23.332;2023-05-09T08:15:52;94944.50;;;14.44;74.07
23176;BME280;19910;42.652;23.332;2023-05-09T08:18:18;94943.31;;;14.69;72.33
23176;BME280;19910;42.652;23.332;2023-05-09T08:20:47;94945.34;;;14.72;72.09
23176;BME280;19910;42.652;23.332;2023-05-09T08:23:13;94942.41;;;14.65;72.38
23176;BME280;19910;42.652;23.332;2023-05-09T08:25:40;94943.53;;;15.20;70.79
23176;BME280;19910;42.652;23.332;2023-05-09T08:28:07;94939.59;;;15.77;69.19
23176;BME280;19910;42.652;23.332;2023-05-09T08:30:34;94936.31;;;16.18;67.79
23176;BME280;19910;42.652;23.332;2023-05-09T08:33:01;94940.03;;;15.94;67.38
23176;BME280;19910;42.652;23.332;2023-05-09T08:35:28;94935.72;;;16.09;67.28
23176;BME280;19910;42.652;23.332;2023-05-09T08:37:56;94938.16;;;16.14;67.51
23176;BME280;19910;42.652;23.332;2023-05-09T08:40:22;94933.81;;;16.13;66.43
23176;BME280;19910;42.652;23.332;2023-05-09T08:42:49;94926.13;;;16.69;65.29
23176;BME280;19910;42.652;23.332;2023-05-09T08:45:22;94945.75;;;15.74;66.53
23176;BME280;19910;42.652;23.332;2023-05-09T08:47:52;94933.41;;;16.11;66.80
23176;BME280;19910;42.652;23.332;2023-05-09T08:50:19;94925.44;;;16.57;65.54
23176;BME280;19910;42.652;23.332;2023-05-09T08:52:46;94932.38;;;15.69;67.70
23176;BME280;19910;42.652;23.332;2023-05-09T08:55:15;94942.09;;;15.38;68.90
23176;BME280;19910;42.652;23.332;2023-05-09T08:57:42;94938.53;;;15.66;68.27
23176;BME280;19910;42.652;23.332;2023-05-09T09:00:11;94940.59;;;15.84;67.87
23176;BME280;19910;42.652;23.332;2023-05-09T09:02:40;94941.03;;;15.71;67.23
23176;BME280;19910;42.652;23.332;2023-05-09T09:05:08;94937.00;;;15.09;68.57
23176;BME280;19910;42.652;23.332;2023-05-09T09:07:35;94921.53;;;15.56;67.97
23176;BME280;19910;42.652;23.332;2023-05-09T09:10:05;94931.59;;;15.68;67.83
23176;BME280;19910;42.652;23.332;2023-05-09T09:12:34;94932.28;;;15.81;67.93
23176;BME280;19910;42.652;23.332;2023-05-09T09:15:09;94926.81;;;15.65;68.16
23176;BME280;19910;42.652;23.332;2023-05-09T09:17:41;94935.84;;;16.16;66.75
23176;BME280;19910;42.652;23.332;2023-05-09T09:20:10;94930.34;;;15.22;69.08
23176;BME280;19910;42.652;23.332;2023-05-09T09:22:41;94939.06;;;15.55;69.20
23176;BME280;19910;42.652;23.332;2023-05-09T09:25:08;94947.34;;;15.31;69.37
23176;BME280;19910;42.652;23.332;2023-05-09T09:27:37;94941.09;;;15.15;70.45
23176;BME280;19910;42.652;23.332;2023-05-09T09:30:06;94940.38;;;15.18;69.79
23176;BME280;19910;42.652;23.332;2023-05-09T09:32:33;94946.53;;;15.15;70.73
23176;BME280;19910;42.652;23.332;2023-05-09T09:35:04;94951.59;;;14.73;72.04
23176;BME280;19910;42.652;23.332;2023-05-09T09:37:32;94950.38;;;14.58;71.85
23176;BME280;19910;42.652;23.332;2023-05-09T09:40:00;94945.41;;;14.88;72.20
23176;BME280;19910;42.652;23.332;2023-05-09T09:42:40;94948.78;;;14.57;72.73
23176;BME280;19910;42.652;23.332;2023-05-09T09:45:11;94941.00;;;14.83;72.32
23176;BME280;19910;42.652;23.332;2023-05-09T09:47:38;94949.34;;;14.90;72.57
23176;BME280;19910;42.652;23.332;2023-05-09T09:50:10;94940.63;;;15.13;71.35
23176;BME280;19910;42.652;23.332;2023-05-09T09:52:48;94945.53;;;14.79;71.23
23176;BME280;19910;42.652;23.332;2023-05-09T09:55:15;94953.56;;;14.60;71.85
23176;BME280;19910;42.652;23.332;2023-05-09T09:57:43;94944.97;;;14.34;73.10
23176;BME280;19910;42.652;23.332;2023-05-09T10:00:12;94949.69;;;14.61;72.33
23176;BME280;19910;42.652;23.332;2023-05-09T10:02:47;94945.34;;;14.72;72.16
23176;BME280;19910;42.652;23.332;2023-05-09T10:05:18;94944.56;;;15.43;70.31
23176;BME280;19910;42.652;23.332;2023-05-09T10:07:49;94938.00;;;15.76;68.79
23176;BME280;19910;42.652;23.332;2023-05-09T10:10:16;94931.50;;;15.64;68.17
23176;BME280;19910;42.652;23.332;2023-05-09T10:12:44;94933.47;;;15.52;69.32
23176;BME280;19910;42.652;23.332;2023-05-09T10:15:16;94923.75;;;15.67;68.97
23176;BME280;19910;42.652;23.332;2023-05-09T10:17:44;94924.59;;;15.86;69.51
23176;BME280;19910;42.652;23.332;2023-05-09T10:20:12;94934.38;;;15.72;69.49
23176;BME280;19910;42.652;23.332;2023-05-09T10:22:40;94939.25;;;15.94;68.85
23176;BME280;19910;42.652;23.332;2023-05-09T10:25:13;94936.16;;;15.80;69.33
23176;BME280;19910;42.652;23.332;2023-05-09T10:27:41;94941.03;;;15.71;70.35
23176;BME280;19910;42.652;23.332;2023-05-09T10:30:16;94938.88;;;15.64;70.60
23176;BME280;19910;42.652;23.332;2023-05-09T10:32:51;94933.25;;;15.73;70.28
23176;BME280;19910;42.652;23.332;2023-05-09T10:35:22;94932.03;;;15.26;70.78
23176;BME280;19910;42.652;23.332;2023-05-09T10:37:51;94913.41;;;15.60;70.51
23176;BME280;19910;42.652;23.332;2023-05-09T10:40:21;94935.38;;;15.63;70.28
23176;BME280;19910;42.652;23.332;2023-05-09T10:42:48;94930.69;;;15.64;70.74
23176;BME280;19910;42.652;23.332;2023-05-09T10:45:18;94938.94;;;15.52;70.67
23176;BME280;19910;42.652;23.332;2023-05-09T10:47:47;94931.31;;;15.14;71.77
23176;BME280;19910;42.652;23.332;2023-05-09T10:50:16;94929.28;;;15.11;72.09
23176;BME280;19910;42.652;23.332;2023-05-09T10:53:06;94925.50;;;15.31;71.64
23176;BME280;19910;42.652;23.332;2023-05-09T10:55:38;94934.56;;;15.63;70.56
23176;BME280;19910;42.652;23.332;2023-05-09T10:58:26;94927.72;;;15.69;71.11
23176;BME280;19910;42.652;23.332;2023-05-09T11:00:57;94923.19;;;15.61;70.21
23176;BME280;19910;42.652;23.332;2023-05-09T11:03:25;94921.72;;;15.20;71.59
23176;BME280;19910;42.652;23.332;2023-05-09T11:05:53;94938.84;;;15.48;71.42
23176;BME280;19910;42.652;23.332;2023-05-09T11:08:22;94923.59;;;15.47;71.10
23176;BME280;19910;42.652;23.332;2023-05-09T11:10:49;94931.50;;;15.21;71.47
23176;BME280;19910;42.652;23.332;2023-05-09T11:13:20;94929.13;;;15.79;70.15
23176;BME280;19910;42.652;23.332;2023-05-09T11:15:50;94929.84;;;15.04;72.28
23176;BME280;19910;42.652;23.332;2023-05-09T11:18:33;94926.72;;;15.61;71.43
23176;BME280;19910;42.652;23.332;2023-05-09T11:21:07;94924.69;;;15.74;69.36
23176;BME280;19910;42.652;23.332;2023-05-09T11:23:40;94921.63;;;15.76;69.43
23176;BME280;19910;42.652;23.332;2023-05-09T11:26:07;94927.63;;;15.22;71.20
23176;BME280;19910;42.652;23.332;2023-05-09T11:28:35;94941.88;;;14.87;71.73
23176;BME280;19910;42.652;23.332;2023-05-09T11:31:09;94930.38;;;14.94;72.02
23176;BME280;19910;42.652;23.332;2023-05-09T11:33:38;94933.66;;;14.72;72.59
23176;BME280;19910;42.652;23.332;2023-05-09T11:36:16;94927.00;;;15.13;71.25
23176;BME280;19910;42.652;23.332;2023-05-09T11:38:45;94933.38;;;14.77;72.45
23176;BME280;19910;42.652;23.332;2023-05-09T11:41:12;94929.47;;;14.62;72.71
23176;BME280;19910;42.652;23.332;2023-05-09T11:43:41;94925.41;;;14.56;73.52
23176;BME280;19910;42.652;23.332;2023-05-09T11:46:08;94935.88;;;14.82;73.51
23176;BME280;19910;42.652;23.332;2023-05-09T11:48:39;94935.56;;;14.71;73.61
23176;BME280;19910;42.652;23.332;2023-05-09T11:51:15;94933.03;;;14.78;72.45
23176;BME280;19910;42.652;23.332;2023-05-09T11:53:42;94923.50;;;15.28;71.31
23176;BME280;19910;42.652;23.332;2023-05-09T11:56:11;94922.91;;;15.07;71.57
23176;BME280;19910;42.652;23.332;2023-05-09T11:58:39;94924.44;;;15.63;69.08
23176;BME280;19910;42.652;23.332;2023-05-09T12:01:06;94914.38;;;15.99;68.26
23176;BME280;19910;42.652;23.332;2023-05-09T12:03:33;94924.34;;;15.76;68.23
23176;BME280;19910;42.652;23.332;2023-05-09T12:06:01;94921.88;;;15.11;70.49
23176;BME280;19910;42.652;23.332;2023-05-09T12:08:28;94935.81;;;15.22;70.64
23176;BME280;19910;42.652;23.332;2023-05-09T12:11:06;94930.75;;;14.80;71.78
23176;BME280;19910;42.652;23.332;2023-05-09T12:13:34;94929.94;;;14.52;72.06
23176;BME280;19910;42.652;23.332;2023-05-09T12:16:01;94938.16;;;14.40;72.54
23176;BME280;19910;42.652;23.332;2023-05-09T12:18:28;94926.31;;;14.36;72.23
23176;BME280;19910;42.652;23.332;2023-05-09T12:20:54;94937.69;;;14.26;73.65
23176;BME280;19910;42.652;23.332;2023-05-09T12:23:23;94939.50;;;14.34;72.55
23176;BME280;19910;42.652;23.332;2023-05-09T12:25:53;94941.72;;;13.79;75.13
23176;BME280;19910;42.652;23.332;2023-05-09T12:28:21;94927.97;;;13.88;75.00
23176;BME280;19910;42.652;23.332;2023-05-09T12:30:49;94933.88;;;13.78;75.71
23176;BME280;19910;42.652;23.332;2023-05-09T12:33:16;94932.50;;;13.60;76.32
23176;BME280;19910;42.652;23.332;2023-05-09T12:35:44;94926.25;;;13.14;77.40
23176;BME280;19910;42.652;23.332;2023-05-09T12:38:13;94933.31;;;13.15;78.38
23176;BME280;19910;42.652;23.332;2023-05-09T12:40:46;94928.41;;;13.08;79.00
23176;BME280;19910;42.652;23.332;2023-05-09T12:43:17;94927.91;;;13.39;78.50
23176;BME280;19910;42.652;23.332;2023-05-09T12:45:44;94940.59;;;13.02;79.07
23176;BME280;19910;42.652;23.332;2023-05-09T12:48:14;94923.28;;;12.74;80.76
23176;BME280;19910;42.652;23.332;2023-05-09T12:50:46;94927.69;;;12.66;81.51
23176;BME280;19910;42.652;23.332;2023-05-09T12:53:22;94926.00;;;13.07;80.51
23176;BME280;19910;42.652;23.332;2023-05-09T12:55:53;94920.19;;;13.29;79.13